WetterOnline ( https://www.wetteronline.ch )

Wetter aktuell Göttingen

Aktuelles Wetter: Göttingen (171m)

6-stündlich | Neueste Meldungen
Ortszeit Temperatur Wetter
Di, 19.11. 7:00 3.9° C wolkenlos
Di, 19.11. 1:00 3.2° C leichter Regen
Mo, 18.11. 19:00 5.0° C bedeckt
Mo, 18.11. 13:00 6.1° C Regen
Mo, 18.11. 7:00 4.3° C bedeckt
Mo, 18.11. 1:00 4.3° C bedeckt
So, 17.11. 19:00 4.1° C bedeckt
So, 17.11. 13:00 1.1° C Sprühregen
Ortszeit Temperatur Wetter
Di, 19.11. 12:00 5.8° C bedeckt
Di, 19.11. 11:50 5.8° C bedeckt
Di, 19.11. 11:40 5.8° C bedeckt
Di, 19.11. 11:30 5.7° C bedeckt
Di, 19.11. 11:20 5.7° C bedeckt
Di, 19.11. 11:10 5.6° C bedeckt
Di, 19.11. 11:00 5.5° C bedeckt
Di, 19.11. 10:30 5.0° C leicht bewölkt
Di, 19.11. 10:00 5.1° C wolkenlos
Di, 19.11. 9:30 4.1° C wolkenlos
Di, 19.11. 9:00 3.8° C wolkenlos
Ortszeit Relative Feuchte Sichtweite
Di, 19.11. 7:00 84% 45 km
Di, 19.11. 1:00 87% 22 km
Mo, 18.11. 19:00 76% >70 km
Mo, 18.11. 13:00 92% 30 km
Mo, 18.11. 7:00 98% 1.3 km
Mo, 18.11. 1:00 95% 5.0 km
So, 17.11. 19:00 93% 14 km
So, 17.11. 13:00 96% 3.0 km
Ortszeit Relative Feuchte Sichtweite
Di, 19.11. 12:00 73% >70 km
Di, 19.11. 11:50 73% -
Di, 19.11. 11:40 73% -
Di, 19.11. 11:30 73% 60 km
Di, 19.11. 11:20 73% -
Di, 19.11. 11:10 74% -
Di, 19.11. 11:00 75% 45 km
Di, 19.11. 10:30 79% 50 km
Di, 19.11. 10:00 78% 50 km
Di, 19.11. 9:30 83% 45 km
Di, 19.11. 9:00 81% 55 km
Ortszeit Niederschlagsmenge Niederschlagsart
Di, 19.11. 7:00 2 l/m2 in 12 Std. Regen
Di, 19.11. 1:00 0.7 l/m2 in 6 Std. Regen
Mo, 18.11. 19:00 3 l/m2 in 12 Std. Regen
Mo, 18.11. 13:00 3 l/m2 in 6 Std. Regen
Mo, 18.11. 7:00 0.1 l/m2 in 12 Std. -
Mo, 18.11. 1:00 0.1 l/m2 in 6 Std. Regen
So, 17.11. 19:00 0.1 l/m2 in 12 Std. Regen
So, 17.11. 13:00 0.1 l/m2 in 6 Std. Regen
Ortszeit Niederschlagsmenge Niederschlagsart
Di, 19.11. 12:00 0.0 l/m2 in 1 Std. -
Di, 19.11. 11:50 keine Meldung -
Di, 19.11. 11:40 keine Meldung -
Di, 19.11. 11:30 0.0 l/m2 in 1 Std. -
Di, 19.11. 11:20 keine Meldung -
Di, 19.11. 11:10 keine Meldung -
Di, 19.11. 11:00 0.0 l/m2 in 1 Std. -
Di, 19.11. 10:30 0.0 l/m2 in 1 Std. -
Di, 19.11. 10:00 0.0 l/m2 in 1 Std. -
Di, 19.11. 9:30 0.0 l/m2 in 1 Std. -
Di, 19.11. 9:00 0.0 l/m2 in 1 Std. -
Ortszeit Stärke Spitze Richtung
km/h Bft. km/h Grad Sektor
Di, 19.11. 7:00 13 3 35 200° S
Di, 19.11. 1:00 22 4 43 190° S
Mo, 18.11. 19:00 25 4 36 180° S
Mo, 18.11. 13:00 7 2 11 180° S
Mo, 18.11. 7:00 4 1 7 200° S
Mo, 18.11. 1:00 4 1 22 340° N
So, 17.11. 19:00 9 2 17 340° N
So, 17.11. 13:00 4 1 7 160° S
Ortszeit Stärke Spitze Richtung
km/h Bft. km/h Grad Sektor
Di, 19.11. 12:00 17 3 28 230° SW
Di, 19.11. 11:50 17 3 - 230° SW
Di, 19.11. 11:40 15 3 - 220° SW
Di, 19.11. 11:30 17 3 26 220° SW
Di, 19.11. 11:20 17 3 - 220° SW
Di, 19.11. 11:10 14 3 - 220° SW
Di, 19.11. 11:00 11 2 26 220° SW
Di, 19.11. 10:30 13 3 26 200° S
Di, 19.11. 10:00 13 3 22 210° SW
Di, 19.11. 9:30 13 3 22 200° S
Di, 19.11. 9:00 17 3 26 190° S
Ortszeit Untergrenze Bedeckung Gattung
total tief tief mittel hoch
Di, 19.11. 7:00 - 0/8 0/8 - - -
Di, 19.11. 1:00 30 m 8/8 8/8 - - -
Mo, 18.11. 19:00 720 m 8/8 8/8 - - -
Mo, 18.11. 13:00 360 m 8/8 8/8 - - -
Mo, 18.11. 7:00 30 m 8/8 8/8 - - -
Mo, 18.11. 1:00 180 m 8/8 8/8 - - -
So, 17.11. 19:00 300 m 8/8 8/8 - - -
So, 17.11. 13:00 30 m 8/8 8/8 - - -
Ortszeit Bedeckungsgrad in Achtel und Wolkenuntergrenze
Di, 19.11. 12:00 8(1800m)
Di, 19.11. 11:50 8(1800m)
Di, 19.11. 11:40 8(1800m)
Di, 19.11. 11:30 8(1800m)
Di, 19.11. 11:20 8(1800m)
Di, 19.11. 11:10 1(570m) 8(1800m)
Di, 19.11. 11:00 1(570m) 8(2100m)
Di, 19.11. 10:30 3(2100m) 1(870m) 5(2100m)
Di, 19.11. 10:00 keine Wolken
Di, 19.11. 9:30 keine Wolken
Di, 19.11. 9:00 keine Wolken
Ortszeit Luftdruck NN (hPa) Tendenz (hPa in 3 Std.)
Di, 19.11. 7:00 1014 + 2,3
Di, 19.11. 1:00 1010 + 1,0
Mo, 18.11. 19:00 1008 + 0,9
Mo, 18.11. 13:00 1007 + 0,6
Mo, 18.11. 7:00 1005 + 1,0
Mo, 18.11. 1:00 1005 - 1,0
So, 17.11. 19:00 1007 - 0,8
So, 17.11. 13:00 1011 - 2,4
Ortszeit Luftdruck NN (hPa) Tendenz (hPa in 3 Std.)
Di, 19.11. 12:00 1017 + 1,5
Di, 19.11. 11:50 1017 keine Meldung
Di, 19.11. 11:40 1017 keine Meldung
Di, 19.11. 11:30 1017 + 1,6
Di, 19.11. 11:20 1017 keine Meldung
Di, 19.11. 11:10 1017 keine Meldung
Di, 19.11. 11:00 1017 + 2,3
Di, 19.11. 10:30 1017 + 2,6
Di, 19.11. 10:00 1016 + 2,4
Di, 19.11. 9:30 1016 + 2,3
Di, 19.11. 9:00 1016 + 1,8
Ortszeit Schneehöhe (cm)
Di, 19.11. 7:00 0
Di, 19.11. 1:00 0
Mo, 18.11. 19:00 0
Mo, 18.11. 13:00 0
Mo, 18.11. 7:00 0
Mo, 18.11. 1:00 0
So, 17.11. 19:00 0
So, 17.11. 13:00 0
Ortszeit Schneehöhe (cm)
Di, 19.11. 12:00 0
Di, 19.11. 11:50 0
Di, 19.11. 11:40 0
Di, 19.11. 11:30 0
Di, 19.11. 11:20 0
Di, 19.11. 11:10 0
Di, 19.11. 11:00 0
Di, 19.11. 10:30 0
Di, 19.11. 10:00 0
Di, 19.11. 9:30 0
Di, 19.11. 9:00 0
Link zu dieser Seite / Seite empfehlen

Das Wetter in ...